createdAt,value
2023-02-19T00:00:32.685Z,65758.78
2023-02-19T00:05:57.265Z,65741.25
2023-02-19T00:11:04.405Z,65749.59
2023-02-19T00:16:10.812Z,65746.84
2023-02-19T00:21:16.345Z,65715.44
2023-02-19T00:26:22.481Z,65727.81
2023-02-19T00:31:32.517Z,65682.84
2023-02-19T00:36:39.429Z,65721.91
2023-02-19T00:41:46.634Z,65714.25
2023-02-19T00:46:52.351Z,65658.41
2023-02-19T00:51:57.452Z,65662.56
2023-02-19T00:57:03.567Z,65648.69
2023-02-19T01:02:09.050Z,65660.97
2023-02-19T01:07:13.656Z,65633.03
2023-02-19T01:12:19.518Z,65668.34
2023-02-19T01:17:23.979Z,65621.28
2023-02-19T01:22:29.179Z,65628.31
2023-02-19T01:27:35.189Z,65580.94
2023-02-19T01:32:39.791Z,65588.50
2023-02-19T01:37:44.727Z,65588.31
2023-02-19T01:42:50.838Z,65603.22
2023-02-19T01:48:09.144Z,65577.09
2023-02-19T01:53:16.070Z,65580.75
2023-02-19T01:58:22.192Z,65577.09
2023-02-19T02:03:26.993Z,65574.63
2023-02-19T02:08:50.055Z,65618.09
2023-02-19T02:14:00.856Z,65589.38
2023-02-19T02:19:24.519Z,65559.59
2023-02-19T02:24:53.515Z,65617.22
2023-02-19T02:30:11.329Z,65547.25
2023-02-19T02:35:20.401Z,65585.00
2023-02-19T02:40:25.558Z,65591.59
2023-02-19T02:45:37.640Z,65540.84
2023-02-19T02:50:56.205Z,65560.91
2023-02-19T02:56:02.011Z,65532.28
2023-02-19T03:01:31.069Z,65547.25
2023-02-19T03:06:38.060Z,65571.75
2023-02-19T03:12:04.903Z,65628.75
2023-02-19T03:17:34.531Z,65650.72
2023-02-19T03:22:42.404Z,65698.34
2023-02-19T03:27:49.670Z,65659.47
2023-02-19T03:32:59.609Z,65597.91
2023-02-19T03:38:10.819Z,65589.81
2023-02-19T03:43:23.186Z,65571.22
2023-02-19T03:48:38.658Z,65556.63
2023-02-19T03:53:55.542Z,65570.50
2023-02-19T03:59:06.912Z,65572.41
2023-02-19T04:04:19.029Z,65576.03
2023-02-19T04:09:26.147Z,65564.31
2023-02-19T04:14:41.244Z,65571.75
2023-02-19T04:19:49.891Z,65568.56
2023-02-19T04:24:56.812Z,65554.19
2023-02-19T04:30:01.827Z,65561.53
2023-02-19T04:35:08.293Z,65577.97
2023-02-19T04:40:12.926Z,65563.88
2023-02-19T04:45:17.541Z,65575.41
2023-02-19T04:50:23.488Z,65581.56
2023-02-19T04:55:27.984Z,65568.03
2023-02-19T05:00:34.123Z,65559.50
2023-02-19T05:05:40.244Z,65593.09
2023-02-19T05:10:45.161Z,65580.22
2023-02-19T05:15:57.637Z,65627.78
2023-02-19T05:21:03.724Z,65590.34
2023-02-19T05:26:08.811Z,65579.47
2023-02-19T05:31:14.295Z,65584.66
2023-02-19T05:36:20.961Z,65603.78
2023-02-19T05:41:26.732Z,65571.34
2023-02-19T05:46:31.645Z,65592.16
2023-02-19T05:51:38.637Z,65632.59
2023-02-19T05:56:44.178Z,65680.28
2023-02-19T06:01:50.126Z,65703.66
2023-02-19T06:06:56.069Z,65729.31
2023-02-19T06:12:00.554Z,65768.19
2023-02-19T06:17:05.240Z,65695.56
2023-02-19T06:22:11.654Z,65682.22
2023-02-19T06:27:18.413Z,65835.56
2023-02-19T06:32:23.568Z,65813.56
2023-02-19T06:37:29.510Z,65883.31
2023-02-19T06:42:33.947Z,65909.97
2023-02-19T06:47:38.475Z,65957.38
2023-02-19T06:52:44.347Z,65928.75
2023-02-19T06:57:48.688Z,65895.00
2023-02-19T07:02:56.711Z,65905.69
2023-02-19T07:08:02.591Z,65942.16
2023-02-19T07:13:07.233Z,65926.00
2023-02-19T07:18:11.648Z,65880.44
2023-02-19T07:23:17.495Z,65878.94
2023-02-19T07:28:21.894Z,65930.72
2023-02-19T07:33:26.332Z,65760.19
2023-02-19T07:38:32.545Z,65657.78
2023-02-19T07:43:38.347Z,65610.81
2023-02-19T07:48:46.624Z,65677.44
2023-02-19T07:53:52.982Z,65693.00
2023-02-19T07:58:57.515Z,65659.47
2023-02-19T08:04:03.034Z,65687.03
2023-02-19T08:09:08.975Z,65696.00
2023-02-19T08:14:16.139Z,65745.00
2023-02-19T08:19:21.355Z,65874.66
2023-02-19T08:24:27.427Z,65806.50
2023-02-19T08:29:32.023Z,65785.91
2023-02-19T08:34:37.178Z,65816.94
2023-02-19T08:39:43.104Z,65654.13
2023-02-19T08:44:47.281Z,65696.22
2023-02-19T08:49:51.725Z,65627.69
2023-02-19T08:54:58.293Z,65688.72
2023-02-19T09:00:03.048Z,65726.66
2023-02-19T09:05:09.272Z,65793.88
2023-02-19T09:10:16.167Z,65669.31
2023-02-19T09:15:21.862Z,65744.69
2023-02-19T09:20:26.346Z,65697.72
2023-02-19T09:25:32.265Z,65793.50
2023-02-19T09:30:36.511Z,65654.56
2023-02-19T09:35:41.697Z,65677.53
2023-02-19T09:40:47.978Z,65772.13
2023-02-19T09:46:03.065Z,65867.00
2023-02-19T09:51:12.911Z,65744.25
2023-02-19T09:56:19.456Z,65698.88
2023-02-19T10:01:28.218Z,65678.69
2023-02-19T10:06:36.389Z,65624.03
2023-02-19T10:11:43.592Z,65608.56
2023-02-19T10:16:53.886Z,65563.66
2023-02-19T10:22:42.831Z,65593.75
2023-02-19T10:28:45.216Z,65553.53
2023-02-19T10:34:48.721Z,65542.53
2023-02-19T10:40:16.892Z,65564.09
2023-02-19T10:45:26.937Z,65584.38
2023-02-19T10:50:34.470Z,65543.94
2023-02-19T10:55:43.733Z,65549.38
2023-02-19T11:00:49.763Z,65536.56
2023-02-19T11:06:03.555Z,65488.59
2023-02-19T11:11:24.888Z,65487.44
2023-02-19T11:16:45.222Z,65485.19
2023-02-19T11:21:50.341Z,65497.13
2023-02-19T11:26:57.083Z,65496.16
2023-02-19T11:32:23.596Z,65407.28
2023-02-19T11:37:28.460Z,65401.22
2023-02-19T11:42:43.034Z,65412.63
2023-02-19T11:48:11.509Z,65399.09
2023-02-19T11:53:23.168Z,65381.59
2023-02-19T11:58:57.981Z,65410.81
2023-02-19T12:04:32.652Z,65436.81
2023-02-19T12:09:53.419Z,65396.41
2023-02-19T12:15:28.928Z,65401.22
2023-02-19T12:20:44.236Z,65447.47
2023-02-19T12:25:59.849Z,65465.78
2023-02-19T12:31:21.457Z,65459.28
2023-02-19T12:36:38.612Z,65480.69
2023-02-19T12:41:50.529Z,65482.63
2023-02-19T12:46:59.154Z,65451.91
2023-02-19T12:52:13.604Z,65479.88
2023-02-19T12:57:23.078Z,65435.84
2023-02-19T13:02:35.045Z,65451.72
2023-02-19T13:07:49.996Z,65464.72
2023-02-19T13:12:56.146Z,65467.47
2023-02-19T13:18:01.875Z,65429.44
2023-02-19T13:23:27.144Z,65431.69
2023-02-19T13:28:49.074Z,65422.97
2023-02-19T13:34:04.429Z,65450.03
2023-02-19T13:44:29.503Z,65466.63
2023-02-19T13:49:43.539Z,65454.16
2023-02-19T13:54:49.302Z,65444.91
2023-02-19T13:59:53.935Z,65409.41
2023-02-19T14:05:01.591Z,65426.25
2023-02-19T14:10:14.345Z,65399.09
2023-02-19T14:15:45.389Z,65383.19
2023-02-19T14:20:49.935Z,65394.81
2023-02-19T14:26:01.298Z,65431.56
2023-02-19T14:31:18.013Z,65412.41
2023-02-19T14:36:35.909Z,65412.41
2023-02-19T14:41:46.399Z,65417.41
2023-02-19T14:46:58.627Z,65398.22
2023-02-19T14:52:07.918Z,65417.19
2023-02-19T14:57:23.337Z,65423.38
2023-02-19T15:02:29.126Z,65398.97
2023-02-19T15:07:35.733Z,65418.78
2023-02-19T15:12:47.462Z,65418.69
2023-02-19T15:17:52.864Z,65397.38
2023-02-19T15:23:00.414Z,65400.56
2023-02-19T15:28:22.193Z,65398.13
2023-02-19T15:33:28.553Z,65400.56
2023-02-19T15:38:34.479Z,65410.38
2023-02-19T15:43:45.390Z,65426.59
2023-02-19T15:48:55.658Z,65449.59
2023-02-19T15:54:10.105Z,65425.38
2023-02-19T15:59:23.355Z,65423.25
2023-02-19T16:04:28.457Z,65425.81
2023-02-19T16:09:35.070Z,65430.63
2023-02-19T16:14:41.127Z,65439.13
2023-02-19T16:24:39.153Z,65428.38
2023-02-19T16:29:43.644Z,65427.75
2023-02-19T16:34:50.672Z,65381.94
2023-02-19T16:40:35.742Z,65385.88
2023-02-19T16:45:42.828Z,65375.63
2023-02-19T16:50:47.453Z,65378.84
2023-02-19T16:55:53.656Z,65369.69
2023-02-19T17:00:58.356Z,65386.28
2023-02-19T17:06:02.756Z,65401.66
2023-02-19T17:11:13.150Z,65375.31
2023-02-19T17:16:19.849Z,65337.31
2023-02-19T17:21:25.713Z,65339.97
2023-02-19T17:26:33.619Z,65346.34
2023-02-19T17:31:38.055Z,65318.03
2023-02-19T17:36:45.601Z,65317.72
2023-02-19T17:41:51.586Z,65348.81
2023-02-19T17:46:56.466Z,65327.22
2023-02-19T17:52:01.032Z,65340.41
2023-02-19T17:57:06.817Z,65329.44
2023-02-19T18:02:11.365Z,65316.56
2023-02-19T18:07:15.699Z,65358.72
2023-02-19T18:12:21.733Z,65340.94
2023-02-19T18:17:28.413Z,65318.34
2023-02-19T18:22:33.210Z,65298.91
2023-02-19T18:27:39.734Z,65287.06
2023-02-19T18:32:44.323Z,65314.75
2023-02-19T18:37:52.822Z,65312.28
2023-02-19T18:42:58.940Z,65293.66
2023-02-19T18:48:03.465Z,65313.44
2023-02-19T18:53:07.990Z,65343.50
2023-02-19T18:58:13.920Z,65289.84
2023-02-19T19:03:18.900Z,65300.25
2023-02-19T19:08:23.410Z,65335.50
2023-02-19T19:13:32.241Z,65346.16
2023-02-19T19:18:38.371Z,65326.25
2023-02-19T19:23:43.402Z,65392.69
2023-02-19T19:28:49.701Z,65338.38
2023-02-19T19:33:55.249Z,65325.59
2023-02-19T19:38:59.775Z,65346.56
2023-02-19T19:44:10.398Z,65329.22
2023-02-19T19:49:19.755Z,65343.69
2023-02-19T19:54:24.284Z,65355.22
2023-02-19T19:59:30.218Z,65347.00
2023-02-19T20:04:35.068Z,65387.69
2023-02-19T20:09:40.621Z,65359.03
2023-02-19T20:14:47.563Z,65344.56
2023-02-19T20:19:52.974Z,65317.72
2023-02-19T20:24:57.673Z,65342.19
2023-02-19T20:30:03.997Z,65374.56
2023-02-19T20:35:10.222Z,65338.78
2023-02-19T20:40:18.396Z,65372.97
2023-02-19T20:45:24.448Z,65377.34
2023-02-19T20:50:30.374Z,65354.25
2023-02-19T20:55:35.095Z,65372.34
2023-02-19T21:00:41.049Z,65333.06
2023-02-19T21:05:45.467Z,65357.22
2023-02-19T21:10:49.850Z,65367.22
2023-02-19T21:15:55.651Z,65339.00
2023-02-19T21:21:00.680Z,65324.75
2023-02-19T21:26:05.481Z,65358.41
2023-02-19T21:31:11.307Z,65333.69
2023-02-19T21:36:16.453Z,65317.19
2023-02-19T21:41:20.805Z,65301.66
2023-02-19T21:46:27.691Z,65308.47
2023-02-19T21:51:34.089Z,65297.94
2023-02-19T21:56:38.608Z,65273.34
2023-02-19T22:01:44.889Z,65270.34
2023-02-19T22:06:49.444Z,65248.53
2023-02-19T22:11:53.917Z,65245.13
2023-02-19T22:16:59.730Z,65241.97
2023-02-19T22:22:05.198Z,65241.53
2023-02-19T22:27:09.859Z,65257.38
2023-02-19T22:32:15.793Z,65216.00
2023-02-19T22:37:20.183Z,65220.69
2023-02-19T22:42:25.420Z,65230.88
2023-02-19T22:47:31.178Z,65220.06
2023-02-19T22:52:35.194Z,65235.56
2023-02-19T22:57:39.621Z,65234.94
2023-02-19T23:02:46.820Z,65204.19
2023-02-19T23:07:51.432Z,65195.78
2023-02-19T23:12:55.949Z,65214.19
2023-02-19T23:18:04.584Z,65182.50
2023-02-19T23:23:08.846Z,65202.16
2023-02-19T23:28:13.091Z,65207.59
2023-02-19T23:33:19.188Z,65182.28
2023-02-19T23:38:23.476Z,65203.13
2023-02-19T23:43:27.818Z,65191.53
2023-02-19T23:48:34.272Z,65178.97
2023-02-19T23:53:38.540Z,65209.63
2023-02-19T23:58:42.845Z,65194.63
